Time;durP1;ratioP1;P1;durP2;ratioP2;P2;SDS_P1;SDS_P2;PMS_P1;PMS_P2;Temp;Humidity;BMP_temperature;BMP_pressure;BME280_temperature;BME280_humidity;BME280_pressure;Samples;Min_cycle;Max_cycle;Signal;HPM_P1;HPM_P2
2021/04/24 00:01:55;;;;;;;9.77;8.77;;;17.10;98.20;;;;;;5074932;28;20036;-62
2021/04/24 00:04:22;;;;;;;9.68;8.77;;;17.10;97.90;;;;;;5075045;28;20043;-61
2021/04/24 00:06:49;;;;;;;9.10;8.20;;;17.20;98.40;;;;;;5075018;28;20500;-61
2021/04/24 00:09:17;;;;;;;9.80;8.85;;;17.30;97.60;;;;;;5073680;28;20043;-62
2021/04/24 00:11:44;;;;;;;10.45;9.35;;;17.30;97.40;;;;;;5074788;28;20427;-61
2021/04/24 00:14:11;;;;;;;12.65;8.07;;;17.50;97.20;;;;;;5074781;28;20035;-63
2021/04/24 00:16:39;;;;;;;8.32;7.50;;;17.60;97.50;;;;;;5074803;28;20488;-63
2021/04/24 00:19:06;;;;;;;9.65;8.45;;;17.70;96.70;;;;;;5074704;28;20366;-64
2021/04/24 00:21:34;;;;;;;9.52;8.48;;;17.80;96.20;;;;;;5073874;28;20488;-62
2021/04/24 00:24:02;;;;;;;9.10;8.10;;;17.90;96.10;;;;;;5074558;28;20028;-64
2021/04/24 00:26:29;;;;;;;7.88;7.28;;;18.10;96.30;;;;;;5074534;28;20029;-65
2021/04/24 00:28:56;;;;;;;8.15;7.43;;;18.40;96.30;;;;;;5074493;28;20028;-64
2021/04/24 00:31:24;;;;;;;10.02;8.82;;;18.60;95.60;;;;;;5074367;28;20032;-63
2021/04/24 00:33:51;;;;;;;8.38;7.57;;;18.40;95.00;;;;;;5074173;28;20020;-62
2021/04/24 00:36:19;;;;;;;8.27;7.57;;;18.70;95.50;;;;;;5072683;28;20048;-63
2021/04/24 00:38:46;;;;;;;10.00;8.13;;;18.90;94.90;;;;;;5074078;28;20020;-63
2021/04/24 00:41:14;;;;;;;9.32;8.52;;;19.00;94.80;;;;;;5072935;28;20046;-63
2021/04/24 00:43:41;;;;;;;9.82;9.02;;;19.00;94.90;;;;;;5073977;28;20074;-64
2021/04/24 00:46:13;;;;;;;9.45;8.55;;;18.90;95.00;;;;;;5072359;28;20020;-62
2021/04/24 00:48:42;;;;;;;9.48;8.00;;;18.70;94.80;;;;;;5073769;28;20017;-62
2021/04/24 00:51:10;;;;;;;8.70;7.88;;;18.50;95.30;;;;;;5074191;28;20017;-62
2021/04/24 00:53:37;;;;;;;9.40;8.45;;;18.50;94.60;;;;;;5073582;28;20448;-62
2021/04/24 00:56:06;;;;;;;9.77;8.63;;;18.20;95.10;;;;;;5073714;28;20384;-62
2021/04/24 00:58:34;;;;;;;8.70;7.90;;;18.40;95.30;;;;;;5072598;28;20086;-65
2021/04/24 01:01:04;;;;;;;8.63;7.82;;;18.30;95.40;;;;;;5073885;28;20055;-64
2021/04/24 01:03:33;;;;;;;9.00;7.72;;;18.60;95.40;;;;;;5073414;28;20530;-63
2021/04/24 01:06:00;;;;;;;8.98;8.07;;;18.70;94.90;;;;;;5073721;28;20024;-64
2021/04/24 01:08:29;;;;;;;8.98;8.15;;;18.70;94.60;;;;;;5073799;28;20082;-63
2021/04/24 01:10:56;;;;;;;10.27;8.20;;;18.90;94.40;;;;;;5073914;28;20067;-64
2021/04/24 01:13:24;;;;;;;8.60;7.80;;;19.00;94.30;;;;;;5073630;28;20025;-63
2021/04/24 01:15:51;;;;;;;8.73;7.93;;;19.50;94.80;;;;;;5072253;28;20028;-64
2021/04/24 01:18:19;;;;;;;8.20;7.50;;;19.50;93.20;;;;;;5073547;28;20103;-63
2021/04/24 01:20:48;;;;;;;8.95;8.05;;;19.40;93.20;;;;;;5073163;28;20033;-61
2021/04/24 01:23:16;;;;;;;8.60;7.78;;;19.50;94.10;;;;;;5071840;28;20035;-55
2021/04/24 01:25:48;;;;;;;8.23;7.43;;;19.70;93.50;;;;;;5073316;28;20036;-59
2021/04/24 01:28:15;;;;;;;8.38;7.68;;;19.90;93.50;;;;;;5073173;28;20024;-58
2021/04/24 01:30:45;;;;;;;8.65;7.30;;;19.90;93.30;;;;;;5072077;28;20038;-57
2021/04/24 01:33:14;;;;;;;8.40;7.60;;;19.90;93.50;;;;;;5073113;28;20111;-58
2021/04/24 01:35:43;;;;;;;8.35;7.63;;;20.10;93.50;;;;;;5073098;28;20496;-59
2021/04/24 01:38:12;;;;;;;8.20;7.50;;;19.80;93.00;;;;;;5073309;28;20026;-62
2021/04/24 01:40:40;;;;;;;10.18;7.40;;;19.70;93.70;;;;;;5073090;28;20047;-64
2021/04/24 01:43:08;;;;;;;9.55;8.43;;;19.80;93.80;;;;;;5073241;28;20112;-65
2021/04/24 01:45:36;;;;;;;8.70;7.85;;;20.00;93.70;;;;;;5073266;28;20029;-66
2021/04/24 01:48:06;;;;;;;8.02;7.20;;;20.00;93.90;;;;;;5073166;28;20032;-63
2021/04/24 01:50:37;;;;;;;9.48;7.68;;;20.20;93.50;;;;;;5073181;28;20403;-62
2021/04/24 01:53:06;;;;;;;7.72;7.00;;;20.40;94.00;;;;;;5073044;28;20393;-61
2021/04/24 01:55:37;;;;;;;8.47;7.67;;;20.20;92.70;;;;;;5072989;28;20077;-61
2021/04/24 01:58:09;;;;;;;9.52;8.27;;;20.40;92.80;;;;;;5072978;28;20494;-62
2021/04/24 02:00:46;;;;;;;10.10;8.27;;;20.20;93.00;;;;;;5072998;28;20065;-61
2021/04/24 02:03:15;;;;;;;8.63;7.90;;;19.90;93.50;;;;;;5072935;28;20139;-61
2021/04/24 02:05:44;;;;;;;8.88;7.97;;;20.00;93.90;;;;;;5072899;28;20496;-61
2021/04/24 02:08:13;;;;;;;8.98;8.10;;;20.00;93.20;;;;;;5071304;28;20020;-61
2021/04/24 02:10:42;;;;;;;8.35;7.70;;;19.90;93.80;;;;;;5072630;28;20032;-61
2021/04/24 02:13:13;;;;;;;8.07;7.38;;;20.10;93.10;;;;;;5072863;28;20098;-61
2021/04/24 02:15:40;;;;;;;13.05;7.60;;;20.10;92.60;;;;;;5072895;28;20028;-62
2021/04/24 02:18:11;;;;;;;11.27;7.53;;;20.10;93.40;;;;;;5072939;28;20415;-62
2021/04/24 02:20:41;;;;;;;8.25;6.90;;;20.30;93.70;;;;;;5072862;28;20039;-63
2021/04/24 02:23:12;;;;;;;7.10;6.50;;;20.70;92.50;;;;;;5072780;28;20021;-63
2021/04/24 02:25:39;;;;;;;;;;;20.50;92.20;;;;;;5073277;28;20047;-62
2021/04/24 02:28:07;;;;;;;8.05;7.25;;;20.10;93.00;;;;;;5072751;28;19990;-62
2021/04/24 02:30:35;;;;;;;7.00;6.40;;;20.30;93.40;;;;;;5072684;28;20025;-62
2021/04/24 02:33:05;;;;;;;8.13;7.38;;;20.80;92.70;;;;;;5072757;28;20025;-62
2021/04/24 02:35:42;;;;;;;8.65;6.68;;;21.10;92.80;;;;;;5071433;28;20024;-62
2021/04/24 02:38:16;;;;;;;7.22;6.53;;;21.40;92.80;;;;;;5072591;28;20435;-62
2021/04/24 02:40:43;;;;;;;7.05;6.40;;;21.10;92.50;;;;;;5072548;28;20048;-61
2021/04/24 02:43:11;;;;;;;9.40;7.25;;;21.30;93.10;;;;;;5072555;28;20023;-62
2021/04/24 02:45:39;;;;;;;8.13;7.30;;;21.40;92.60;;;;;;5072871;28;20036;-63
2021/04/24 02:48:06;;;;;;;7.57;6.88;;;21.40;92.30;;;;;;5075158;28;20028;-61
2021/04/24 02:50:34;;;;;;;8.05;7.45;;;21.70;92.50;;;;;;5076548;28;20034;-62
2021/04/24 02:53:02;;;;;;;8.18;7.43;;;21.80;91.90;;;;;;5076441;28;20031;-61
2021/04/24 02:55:29;;;;;;;7.68;7.07;;;21.90;92.30;;;;;;5076373;28;20362;-61
2021/04/24 02:57:57;;;;;;;7.68;7.10;;;22.00;91.90;;;;;;5076165;28;20032;-62
2021/04/24 03:00:25;;;;;;;7.20;6.60;;;22.10;91.50;;;;;;5076289;28;20048;-62
2021/04/24 03:03:08;;;;;;;7.85;7.05;;;21.80;91.10;;;;;;5076051;28;20489;-62
2021/04/24 03:05:37;;;;;;;7.25;6.55;;;21.40;92.50;;;;;;5076074;28;20025;-62
2021/04/24 03:08:06;;;;;;;7.43;6.72;;;21.40;92.10;;;;;;5075989;28;20100;-62
2021/04/24 03:10:35;;;;;;;7.72;6.97;;;21.60;92.10;;;;;;5076096;28;20043;-61
2021/04/24 03:13:03;;;;;;;6.55;6.13;;;21.90;92.70;;;;;;5076021;28;20027;-62
2021/04/24 03:15:30;;;;;;;6.35;5.80;;;22.20;92.20;;;;;;5075764;28;20025;-62
2021/04/24 03:17:58;;;;;;;7.13;6.40;;;22.30;92.10;;;;;;5075887;28;20046;-61
2021/04/24 03:20:25;;;;;;;8.00;7.30;;;22.30;91.20;;;;;;5075836;28;20103;-63
2021/04/24 03:22:53;;;;;;;8.10;7.30;;;22.50;92.60;;;;;;5075676;28;20362;-62
2021/04/24 03:25:20;;;;;;;8.10;7.30;;;22.50;92.20;;;;;;5075768;28;20028;-63
2021/04/24 03:27:48;;;;;;;7.07;6.45;;;22.40;92.20;;;;;;5075928;28;20099;-62
2021/04/24 03:30:16;;;;;;;7.43;6.70;;;22.40;91.90;;;;;;5075695;28;20046;-62
2021/04/24 03:32:43;;;;;;;7.60;6.88;;;22.70;92.70;;;;;;5075659;28;20136;-62
2021/04/24 03:35:11;;;;;;;7.85;7.03;;;22.70;91.90;;;;;;5075520;28;20103;-63
2021/04/24 03:37:39;;;;;;;10.00;6.97;;;22.70;92.40;;;;;;5075613;28;20020;-63
2021/04/24 03:40:07;;;;;;;8.82;7.95;;;22.50;91.60;;;;;;5074293;28;20181;-63
2021/04/24 03:42:35;;;;;;;7.85;7.10;;;22.60;91.80;;;;;;5074219;28;20027;-62
2021/04/24 03:45:03;;;;;;;6.90;6.30;;;22.60;91.70;;;;;;5074256;28;20023;-63
2021/04/24 03:47:31;;;;;;;7.20;6.40;;;22.80;92.00;;;;;;5075476;28;20033;-62
2021/04/24 03:49:58;;;;;;;7.55;6.75;;;22.80;92.20;;;;;;5075470;28;20152;-63
2021/04/24 03:52:25;;;;;;;7.25;6.50;;;22.70;91.60;;;;;;5075206;28;20388;-62
2021/04/24 03:54:53;;;;;;;8.10;6.60;;;22.70;92.20;;;;;;5075150;28;20025;-62
2021/04/24 03:57:20;;;;;;;7.70;6.93;;;22.90;92.60;;;;;;5073696;28;20020;-62
2021/04/24 03:59:48;;;;;;;8.10;6.50;;;23.00;92.10;;;;;;5075218;28;20100;-62
2021/04/24 04:02:15;;;;;;;7.30;6.70;;;23.00;92.00;;;;;;5075106;28;20027;-61
2021/04/24 04:04:42;;;;;;;8.30;7.50;;;22.90;92.30;;;;;;5074951;28;20017;-62
2021/04/24 04:07:09;;;;;;;7.47;6.78;;;22.90;92.00;;;;;;5074869;28;20389;-62
2021/04/24 04:09:37;;;;;;;7.97;7.20;;;22.90;92.30;;;;;;5074964;28;20028;-62
2021/04/24 04:12:04;;;;;;;7.78;6.97;;;22.90;91.90;;;;;;5074699;28;20020;-65
2021/04/24 04:14:32;;;;;;;8.07;7.38;;;22.80;91.90;;;;;;5074782;28;20385;-62
2021/04/24 04:16:59;;;;;;;7.68;6.90;;;22.70;91.90;;;;;;5074725;28;20021;-63
2021/04/24 04:19:26;;;;;;;8.60;7.65;;;22.60;92.20;;;;;;5074649;28;20020;-63
2021/04/24 04:21:54;;;;;;;8.20;7.38;;;22.60;92.40;;;;;;5074794;28;20507;-63
2021/04/24 04:24:21;;;;;;;9.32;7.10;;;22.60;92.40;;;;;;5073419;28;20031;-62
2021/04/24 04:26:48;;;;;;;7.82;6.20;;;22.50;92.70;;;;;;5074672;28;20029;-63
2021/04/24 04:29:15;;;;;;;9.52;6.78;;;22.50;92.90;;;;;;5074551;28;20066;-63
2021/04/24 04:31:43;;;;;;;7.90;7.10;;;22.50;92.90;;;;;;5073262;28;20119;-62
2021/04/24 04:34:10;;;;;;;7.30;6.50;;;22.30;92.30;;;;;;5074738;28;20060;-62
2021/04/24 04:36:37;;;;;;;10.20;5.95;;;22.10;93.60;;;;;;5074532;28;20016;-63
2021/04/24 04:39:05;;;;;;;9.02;8.02;;;22.10;93.40;;;;;;5074290;28;20052;-62
2021/04/24 04:41:32;;;;;;;7.60;6.68;;;22.10;93.40;;;;;;5074420;28;20028;-64
2021/04/24 04:44:00;;;;;;;7.45;6.63;;;21.90;93.80;;;;;;5074228;28;20024;-63
2021/04/24 04:46:27;;;;;;;7.63;6.72;;;21.80;93.90;;;;;;5074260;28;20051;-63
2021/04/24 04:48:54;;;;;;;7.95;7.20;;;21.70;94.20;;;;;;5074232;28;20024;-61
2021/04/24 04:51:22;;;;;;;7.63;6.47;;;21.70;94.40;;;;;;5074176;28;20028;-62
2021/04/24 04:53:49;;;;;;;8.18;7.20;;;21.60;94.70;;;;;;5074112;28;20059;-64
2021/04/24 04:56:16;;;;;;;7.72;6.68;;;21.50;94.80;;;;;;5073990;28;20017;-63
2021/04/24 04:58:44;;;;;;;7.90;6.50;;;21.50;95.20;;;;;;5073956;28;20100;-63
2021/04/24 05:01:11;;;;;;;8.25;6.80;;;21.50;95.10;;;;;;5073956;28;20043;-63
2021/04/24 05:03:39;;;;;;;7.90;7.10;;;21.30;95.70;;;;;;5073895;28;20048;-62
2021/04/24 05:06:06;;;;;;;7.97;7.38;;;21.30;95.90;;;;;;5073890;28;20059;-63
2021/04/24 05:08:36;;;;;;;8.32;7.72;;;21.30;96.20;;;;;;5073370;28;20052;-63
2021/04/24 05:11:07;;;;;;;7.25;6.75;;;21.20;96.20;;;;;;5073806;28;20119;-63
2021/04/24 05:13:35;;;;;;;7.70;7.07;;;21.10;96.00;;;;;;5073610;28;20021;-63
2021/04/24 05:16:02;;;;;;;7.63;7.03;;;21.20;96.40;;;;;;5072255;28;20059;-63
2021/04/24 05:18:29;;;;;;;9.18;8.18;;;21.20;96.00;;;;;;5073578;28;20469;-63
2021/04/24 05:20:57;;;;;;;8.90;8.05;;;21.20;96.10;;;;;;5073848;28;20024;-62
2021/04/24 05:23:24;;;;;;;9.00;8.10;;;21.00;96.70;;;;;;5073615;28;20028;-63
2021/04/24 05:25:51;;;;;;;7.70;7.20;;;21.00;96.70;;;;;;5073372;28;20166;-63
2021/04/24 05:28:19;;;;;;;8.55;7.65;;;21.00;96.60;;;;;;5073423;28;20602;-63
2021/04/24 05:30:46;;;;;;;8.63;7.93;;;21.00;97.00;;;;;;5073486;28;20108;-63
2021/04/24 05:33:14;;;;;;;7.88;7.20;;;20.90;97.00;;;;;;5073389;28;20393;-63
2021/04/24 05:35:41;;;;;;;7.95;7.35;;;20.90;96.70;;;;;;5073155;28;20033;-64
2021/04/24 05:38:08;;;;;;;8.48;7.70;;;20.70;97.10;;;;;;5073399;28;20021;-62
2021/04/24 05:40:36;;;;;;;8.85;8.02;;;20.70;97.30;;;;;;5073164;28;20044;-62
2021/04/24 05:43:04;;;;;;;8.43;7.82;;;20.60;97.70;;;;;;5073166;28;20038;-62
2021/04/24 05:45:31;;;;;;;8.00;7.40;;;20.50;97.90;;;;;;5073244;28;20145;-63
2021/04/24 05:47:58;;;;;;;8.05;7.35;;;20.50;97.60;;;;;;5073392;28;20029;-63
2021/04/24 05:50:26;;;;;;;7.53;6.85;;;20.40;97.80;;;;;;5073221;28;20511;-62
2021/04/24 05:52:54;;;;;;;7.57;6.85;;;20.50;97.80;;;;;;5073101;28;20024;-63
2021/04/24 05:55:22;;;;;;;8.02;7.45;;;20.40;97.70;;;;;;5071667;28;20087;-64
2021/04/24 05:57:49;;;;;;;8.63;7.95;;;20.40;98.10;;;;;;5073065;28;20020;-64
2021/04/24 06:00:20;;;;;;;8.07;7.47;;;20.30;98.20;;;;;;5073201;28;20385;-63
2021/04/24 06:02:48;;;;;;;7.90;7.13;;;20.20;98.70;;;;;;5072886;28;20555;-63
2021/04/24 06:05:16;;;;;;;8.07;7.32;;;20.20;98.50;;;;;;5072957;28;20025;-62
2021/04/24 06:07:43;;;;;;;9.05;8.25;;;20.10;98.40;;;;;;5072926;28;20024;-62
2021/04/24 06:10:14;;;;;;;8.60;7.35;;;20.00;98.60;;;;;;5072870;28;20108;-63
2021/04/24 06:12:41;;;;;;;10.55;7.40;;;19.90;98.70;;;;;;5072939;28;20044;-62
2021/04/24 06:15:11;;;;;;;8.57;7.30;;;19.90;98.80;;;;;;5071433;28;20162;-62
2021/04/24 06:17:41;;;;;;;9.35;8.45;;;19.80;98.90;;;;;;5071572;28;20032;-64
2021/04/24 06:20:10;;;;;;;7.90;7.20;;;19.70;99.00;;;;;;5071902;28;20040;-63
2021/04/24 06:22:39;;;;;;;7.15;6.55;;;19.60;99.30;;;;;;5072525;28;20335;-63
2021/04/24 06:25:12;;;;;;;7.32;6.63;;;19.60;99.50;;;;;;5072695;28;20103;-64
2021/04/24 06:27:42;;;;;;;9.27;7.95;;;19.60;99.50;;;;;;5072907;28;20086;-64
2021/04/24 06:30:14;;;;;;;9.30;7.82;;;19.40;99.60;;;;;;5072483;28;20101;-64
2021/04/24 06:32:42;;;;;;;8.50;7.70;;;19.50;99.80;;;;;;5071301;28;20086;-63
2021/04/24 06:35:10;;;;;;;7.80;7.25;;;19.30;99.90;;;;;;5072474;28;20389;-63
2021/04/24 06:37:38;;;;;;;8.70;7.75;;;19.30;99.90;;;;;;5072603;28;20024;-64
2021/04/24 06:40:08;;;;;;;8.90;8.00;;;19.30;99.90;;;;;;5072371;28;20370;-63
2021/04/24 06:42:36;;;;;;;9.85;7.30;;;19.20;99.90;;;;;;5072764;28;20058;-64
2021/04/24 06:45:06;;;;;;;7.38;6.53;;;19.10;99.90;;;;;;5072644;28;20370;-63
2021/04/24 06:47:34;;;;;;;7.43;6.65;;;19.00;99.90;;;;;;5072352;28;20036;-63
2021/04/24 06:50:03;;;;;;;8.90;8.02;;;18.90;99.90;;;;;;5072341;28;20107;-63
2021/04/24 06:52:30;;;;;;;8.18;7.18;;;18.80;99.90;;;;;;5072348;28;20056;-64
2021/04/24 06:54:57;;;;;;;7.85;7.20;;;18.70;99.90;;;;;;5072215;28;20037;-63
2021/04/24 06:57:25;;;;;;;7.78;7.20;;;18.80;99.90;;;;;;5070966;28;20020;-63
2021/04/24 06:59:53;;;;;;;8.45;7.82;;;18.70;99.90;;;;;;5072283;28;20025;-63
2021/04/24 07:02:26;;;;;;;9.25;8.55;;;18.50;99.90;;;;;;5072544;28;20111;-63
2021/04/24 07:04:53;;;;;;;8.13;7.40;;;18.40;99.90;;;;;;5072247;28;20020;-63
2021/04/24 07:07:21;;;;;;;11.27;8.13;;;18.40;99.90;;;;;;5072197;28;20366;-63
2021/04/24 07:09:48;;;;;;;8.45;7.70;;;18.30;99.90;;;;;;5072404;28;20021;-60
2021/04/24 07:12:15;;;;;;;8.80;7.95;;;18.20;99.90;;;;;;5072180;28;20036;-61
2021/04/24 07:14:45;;;;;;;8.18;7.47;;;18.10;99.90;;;;;;5072250;28;20107;-61
2021/04/24 07:17:16;;;;;;;8.77;8.00;;;18.00;99.90;;;;;;5072447;28;20408;-60
2021/04/24 07:19:43;;;;;;;9.00;8.10;;;17.90;99.90;;;;;;5072232;28;20052;-61
2021/04/24 07:22:14;;;;;;;8.45;7.85;;;17.90;99.90;;;;;;5070920;28;20029;-60
2021/04/24 07:24:44;;;;;;;8.82;8.05;;;17.90;99.90;;;;;;5072187;28;20077;-61
2021/04/24 07:27:12;;;;;;;;;;;17.80;99.90;;;;;;5072750;28;20032;-60
2021/04/24 07:29:42;;;;;;;9.40;8.50;;;17.80;99.90;;;;;;5072197;28;19904;-60
2021/04/24 07:32:10;;;;;;;15.65;8.68;;;17.80;99.90;;;;;;5073063;28;20036;-61
2021/04/24 07:34:37;;;;;;;9.18;8.35;;;17.70;99.90;;;;;;5075735;28;20025;-62
2021/04/24 07:37:05;;;;;;;9.57;8.82;;;17.60;99.90;;;;;;5075731;28;20028;-60
2021/04/24 07:39:32;;;;;;;9.73;8.73;;;17.40;99.90;;;;;;5075297;28;20043;-60
2021/04/24 07:42:00;;;;;;;10.70;9.20;;;17.40;99.90;;;;;;5074647;28;20035;-61
2021/04/24 07:44:27;;;;;;;10.05;9.25;;;17.30;99.90;;;;;;5075640;28;20036;-59
2021/04/24 07:46:55;;;;;;;10.77;10.05;;;17.20;99.90;;;;;;5075538;28;20389;-60
2021/04/24 07:49:22;;;;;;;10.57;9.80;;;17.10;99.90;;;;;;5075474;28;20077;-60
2021/04/24 07:51:49;;;;;;;11.05;9.95;;;17.00;99.90;;;;;;5073894;28;20070;-61
2021/04/24 07:54:17;;;;;;;12.23;11.13;;;16.90;99.90;;;;;;5075206;28;20109;-60
2021/04/24 07:56:48;;;;;;;11.82;10.65;;;16.80;99.90;;;;;;5075196;28;20024;-61
2021/04/24 07:59:15;;;;;;;;;;;16.80;99.90;;;;;;5075708;28;20021;-61
2021/04/24 08:01:42;;;;;;;12.52;11.65;;;16.70;99.90;;;;;;5073898;28;19999;-60
2021/04/24 08:04:09;;;;;;;13.07;12.27;;;16.70;99.90;;;;;;5075245;28;20423;-61
2021/04/24 08:06:37;;;;;;;13.75;12.85;;;16.60;99.90;;;;;;5075109;28;20021;-60
2021/04/24 08:09:06;;;;;;;14.65;13.40;;;16.60;99.90;;;;;;5074957;28;20025;-60
2021/04/24 08:11:35;;;;;;;14.70;13.65;;;16.50;99.90;;;;;;5075046;28;20029;-61
2021/04/24 08:14:03;;;;;;;14.45;13.45;;;16.50;99.90;;;;;;5074993;28;20108;-61
2021/04/24 08:16:30;;;;;;;15.07;13.98;;;16.40;99.90;;;;;;5074904;28;20380;-61
2021/04/24 08:18:58;;;;;;;15.45;14.45;;;16.40;99.90;;;;;;5074793;28;20031;-61
2021/04/24 08:21:25;;;;;;;15.90;14.60;;;16.30;99.90;;;;;;5074863;28;20359;-61
2021/04/24 08:23:58;;;;;;;15.20;14.18;;;16.30;99.90;;;;;;5074707;28;20082;-62
2021/04/24 08:26:27;;;;;;;16.05;14.95;;;16.30;99.90;;;;;;5074792;28;20492;-61
2021/04/24 08:28:58;;;;;;;16.00;15.02;;;16.20;99.90;;;;;;5074740;28;20024;-60
2021/04/24 08:31:25;;;;;;;16.40;15.30;;;16.20;99.90;;;;;;5074982;28;20013;-60
2021/04/24 08:33:53;;;;;;;17.17;16.17;;;16.10;99.90;;;;;;5074618;28;20032;-61
2021/04/24 08:36:20;;;;;;;18.05;16.83;;;16.10;99.90;;;;;;5074363;28;20078;-61
2021/04/24 08:38:48;;;;;;;17.58;16.45;;;16.00;99.90;;;;;;5074384;28;20017;-60
2021/04/24 08:41:15;;;;;;;18.60;17.30;;;16.00;99.90;;;;;;5074733;28;20059;-60
2021/04/24 08:43:43;;;;;;;19.70;18.30;;;15.90;99.90;;;;;;5073563;28;20438;-60
2021/04/24 08:46:16;;;;;;;20.02;18.58;;;15.90;99.90;;;;;;5074459;28;20020;-61
2021/04/24 08:48:43;;;;;;;20.73;19.52;;;15.80;99.90;;;;;;5074387;28;20500;-61
2021/04/24 08:51:11;;;;;;;22.20;20.65;;;15.90;99.90;;;;;;5074208;28;20070;-60
2021/04/24 08:53:38;;;;;;;23.38;22.08;;;15.80;99.90;;;;;;5074114;28;20027;-60
2021/04/24 08:56:06;;;;;;;23.92;22.50;;;15.80;99.90;;;;;;5073997;28;20058;-60
2021/04/24 08:58:33;;;;;;;23.08;21.77;;;15.80;99.90;;;;;;5074005;28;20024;-60
2021/04/24 09:01:00;;;;;;;23.90;22.52;;;15.80;99.90;;;;;;5074043;28;20497;-60
2021/04/24 09:03:27;;;;;;;26.05;24.23;;;15.70;99.90;;;;;;5073977;28;20055;-61
2021/04/24 09:05:55;;;;;;;26.70;25.20;;;15.80;99.90;;;;;;5073986;28;20103;-62
2021/04/24 09:08:26;;;;;;;27.38;25.75;;;15.70;99.90;;;;;;5073911;28;20025;-61
2021/04/24 09:10:58;;;;;;;27.42;25.90;;;15.70;99.90;;;;;;5073910;28;20028;-62
2021/04/24 09:13:27;;;;;;;30.65;28.55;;;15.60;99.90;;;;;;5073945;28;20031;-61
2021/04/24 09:15:55;;;;;;;30.60;28.90;;;15.60;99.90;;;;;;5073817;28;20154;-61
2021/04/24 09:18:25;;;;;;;31.42;29.55;;;15.60;99.90;;;;;;5073736;28;20140;-61
2021/04/24 09:21:01;;;;;;;38.85;35.88;;;15.50;99.90;;;;;;5073950;28;20024;-61
2021/04/24 09:23:34;;;;;;;37.75;35.63;;;15.50;99.90;;;;;;5073614;28;20426;-61
2021/04/24 09:26:05;;;;;;;38.67;36.33;;;15.50;99.90;;;;;;5073488;28;20029;-61
2021/04/24 09:28:39;;;;;;;36.90;34.90;;;15.50;99.90;;;;;;5072216;28;20021;-61
2021/04/24 09:31:15;;;;;;;35.72;33.53;;;15.60;99.90;;;;;;5073597;28;20020;-61
2021/04/24 09:33:45;;;;;;;35.72;33.58;;;15.60;99.90;;;;;;5073459;28;20107;-60
2021/04/24 09:36:14;;;;;;;34.72;32.53;;;15.60;99.90;;;;;;5073031;28;20028;-60
2021/04/24 09:38:50;;;;;;;35.67;33.53;;;15.60;99.90;;;;;;5073075;28;20031;-63
2021/04/24 09:41:27;;;;;;;35.95;33.72;;;15.50;99.90;;;;;;5073320;28;20032;-61
2021/04/24 09:44:00;;;;;;;36.80;34.78;;;15.40;99.90;;;;;;5073010;28;20365;-62
2021/04/24 09:46:35;;;;;;;37.65;35.15;;;15.40;99.90;;;;;;5073489;28;20024;-61
2021/04/24 09:49:12;;;;;;;37.92;35.78;;;15.40;99.90;;;;;;5073157;28;20020;-61
2021/04/24 09:52:01;;;;;;;40.53;37.90;;;15.30;99.90;;;;;;5073266;28;20476;-61
2021/04/24 09:54:37;;;;;;;39.92;37.45;;;15.30;99.90;;;;;;5062278;28;20123;-61
2021/04/24 09:57:10;;;;;;;39.03;36.58;;;15.30;99.90;;;;;;5073007;28;20032;-61
2021/04/24 09:59:57;;;;;;;39.53;37.03;;;15.20;99.90;;;;;;5072885;28;20032;-61
2021/04/24 10:02:32;;;;;;;39.67;37.28;;;15.20;99.90;;;;;;5072897;28;20021;-61
2021/04/24 10:05:25;;;;;;;38.58;36.53;;;15.20;99.90;;;;;;5072897;28;20504;-63
2021/04/24 10:07:54;;;;;;;39.70;37.20;;;15.10;99.90;;;;;;5070389;28;20032;-62
2021/04/24 10:10:31;;;;;;;43.28;40.78;;;15.10;99.90;;;;;;5072871;28;20056;-62
2021/04/24 10:13:01;;;;;;;43.17;40.40;;;15.10;99.90;;;;;;5072875;28;20023;-63
2021/04/24 10:15:45;;;;;;;43.38;40.55;;;15.10;99.90;;;;;;5073115;28;20033;-62
2021/04/24 10:18:15;;;;;;;43.22;41.03;;;15.10;99.90;;;;;;5072773;28;20393;-62
2021/04/24 10:20:44;;;;;;;43.60;41.27;;;15.00;99.90;;;;;;5072761;28;20063;-61
2021/04/24 10:23:14;;;;;;;43.00;40.67;;;15.00;99.90;;;;;;5072619;28;20256;-62
2021/04/24 10:25:42;;;;;;;44.13;41.47;;;15.00;99.90;;;;;;5072615;28;20036;-61
2021/04/24 10:28:09;;;;;;;43.05;40.38;;;15.00;99.90;;;;;;5072573;28;20073;-60
2021/04/24 10:30:38;;;;;;;41.63;38.85;;;14.90;99.90;;;;;;5072667;28;20025;-61
2021/04/24 10:33:06;;;;;;;42.92;40.50;;;14.90;99.90;;;;;;5072675;28;20028;-62
2021/04/24 10:35:33;;;;;;;43.10;40.90;;;14.80;99.90;;;;;;5072528;28;20037;-63
2021/04/24 10:38:03;;;;;;;44.63;42.22;;;14.80;99.90;;;;;;5072496;28;20047;-62
2021/04/24 10:40:30;;;;;;;45.90;43.20;;;14.70;99.90;;;;;;5072379;28;20042;-62
2021/04/24 10:43:00;;;;;;;48.45;45.63;;;14.60;99.90;;;;;;5072604;28;20020;-62
2021/04/24 10:45:34;;;;;;;50.25;47.63;;;14.60;99.90;;;;;;5072408;28;20349;-61
2021/04/24 10:48:03;;;;;;;50.88;48.15;;;14.60;99.90;;;;;;5072515;28;20020;-61
2021/04/24 10:50:40;;;;;;;54.10;51.28;;;14.60;99.90;;;;;;5072371;28;20031;-62
2021/04/24 10:53:31;;;;;;;55.67;52.97;;;14.60;99.90;;;;;;5072455;28;20024;-62
2021/04/24 10:56:00;;;;;;;35.63;33.47;;;14.50;99.90;;;;;;5072421;28;20522;-61
2021/04/24 10:58:30;;;;;;;35.80;33.50;;;14.50;99.90;;;;;;5072532;28;20028;-61
2021/04/24 11:01:15;;;;;;;37.03;34.53;;;14.50;99.90;;;;;;5072302;28;20020;-61
2021/04/24 11:03:52;;;;;;;38.70;36.25;;;14.50;99.90;;;;;;5072245;28;20245;-61
2021/04/24 11:06:23;;;;;;;54.15;51.15;;;14.50;99.90;;;;;;5072417;28;20056;-61
2021/04/24 11:09:18;;;;;;;54.90;51.90;;;14.50;99.90;;;;;;5076187;28;20020;-60
2021/04/24 11:11:49;;;;;;;59.20;55.72;;;14.40;99.90;;;;;;5073263;28;20047;-61
2021/04/24 11:14:19;;;;;;;64.10;60.60;;;14.50;99.90;;;;;;5074528;28;20507;-61
2021/04/24 11:16:47;;;;;;;65.50;61.38;;;14.60;99.90;;;;;;5076054;28;20024;-62
2021/04/24 11:19:41;;;;;;;64.80;60.60;;;14.60;99.90;;;;;;5075894;28;20028;-62
2021/04/24 11:22:36;;;;;;;60.35;56.67;;;14.80;99.90;;;;;;5075861;28;20431;-61
2021/04/24 11:25:23;;;;;;;69.32;64.75;;;14.80;99.90;;;;;;5075923;28;20028;-62
2021/04/24 11:28:10;;;;;;;65.97;61.85;;;14.80;99.90;;;;;;5075858;28;20016;-62
2021/04/24 11:31:00;;;;;;;64.80;60.90;;;14.60;99.90;;;;;;5075759;28;20032;-62
2021/04/24 11:33:37;;;;;;;63.30;59.50;;;14.60;99.90;;;;;;5075794;28;20025;-61
2021/04/24 11:38:57;;;;;;;67.32;63.35;;;14.60;99.90;;;;;;5075540;28;20052;-62
2021/04/24 11:41:41;;;;;;;66.72;62.90;;;14.60;99.90;;;;;;5075662;28;20028;-62
2021/04/24 11:44:26;;;;;;;64.60;61.00;;;14.60;99.90;;;;;;5075532;28;20017;-63
2021/04/24 11:46:57;;;;;;;61.30;57.58;;;14.50;99.90;;;;;;5075573;28;20062;-62
2021/04/24 11:49:29;;;;;;;60.72;57.45;;;14.40;99.90;;;;;;5075426;28;20477;-62
2021/04/24 11:52:10;;;;;;;62.15;58.35;;;14.40;99.90;;;;;;5075475;28;20024;-61
2021/04/24 11:54:42;;;;;;;60.95;57.28;;;14.30;99.90;;;;;;5075350;28;20025;-61
2021/04/24 11:57:19;;;;;;;62.30;58.90;;;14.20;99.90;;;;;;5075412;28;20020;-61
2021/04/24 11:59:49;;;;;;;59.63;56.05;;;14.20;99.90;;;;;;5075182;28;20021;-62
2021/04/24 12:02:22;;;;;;;63.22;59.70;;;14.20;99.90;;;;;;5075222;28;20023;-62
2021/04/24 12:05:00;;;;;;;63.35;59.75;;;14.10;99.90;;;;;;5075018;28;20044;-62
2021/04/24 12:07:30;;;;;;;59.28;55.63;;;14.10;99.90;;;;;;5074980;28;20025;-61
2021/04/24 12:10:00;;;;;;;61.80;58.15;;;14.00;99.90;;;;;;5075030;28;20051;-62
2021/04/24 12:12:42;;;;;;;64.47;60.78;;;14.00;99.90;;;;;;5074965;28;20101;-62
2021/04/24 12:15:12;;;;;;;65.75;61.65;;;14.00;99.90;;;;;;5074960;28;20060;-62
2021/04/24 12:17:52;;;;;;;65.90;61.67;;;14.00;99.90;;;;;;5073679;28;20039;-62
2021/04/24 12:20:34;;;;;;;67.70;63.53;;;14.00;99.90;;;;;;5074759;28;20028;-62
2021/04/24 12:23:07;;;;;;;65.90;61.83;;;14.10;99.90;;;;;;5074951;28;20253;-61
2021/04/24 12:25:36;;;;;;;62.38;58.38;;;14.10;99.90;;;;;;5074735;28;20029;-63
2021/04/24 12:28:06;;;;;;;59.97;55.97;;;14.00;99.90;;;;;;5074737;28;20028;-62
2021/04/24 12:30:37;;;;;;;62.47;58.65;;;14.10;99.90;;;;;;5074687;28;20067;-62
2021/04/24 12:33:04;;;;;;;66.22;61.75;;;14.10;99.90;;;;;;5074788;28;20025;-62
2021/04/24 12:35:52;;;;;;;64.32;60.38;;;14.10;99.90;;;;;;5074748;28;20052;-62
2021/04/24 12:38:29;;;;;;;63.22;59.22;;;14.10;99.90;;;;;;5074322;28;20036;-62
2021/04/24 12:41:01;;;;;;;62.10;58.00;;;14.20;99.90;;;;;;5074479;28;20119;-61
2021/04/24 12:43:42;;;;;;;61.03;57.30;;;14.30;99.90;;;;;;5074464;28;20389;-62
2021/04/24 12:46:10;;;;;;;;;;;14.30;99.90;;;;;;5074867;28;20081;-60
2021/04/24 12:48:43;;;;;;;60.53;56.83;;;14.30;99.90;;;;;;5074367;28;19952;-61
2021/04/24 12:51:18;;;;;;;60.92;57.30;;;14.30;99.90;;;;;;5074217;28;20111;-62
2021/04/24 12:53:48;;;;;;;64.32;60.63;;;14.40;99.90;;;;;;5074225;28;20027;-62
2021/04/24 12:56:29;;;;;;;63.38;59.83;;;14.30;99.90;;;;;;5074133;28;20503;-62
2021/04/24 12:59:06;;;;;;;61.60;58.13;;;14.40;99.90;;;;;;5074127;28;20031;-62